createdAt,value
2023-05-19T00:01:45.463Z,7.05
2023-05-19T00:03:55.091Z,7.82
2023-05-19T00:05:58.828Z,8.15
2023-05-19T00:08:04.368Z,8.43
2023-05-19T00:10:07.715Z,6.43
2023-05-19T00:12:11.037Z,7.47
2023-05-19T00:14:13.648Z,7.97
2023-05-19T00:16:16.333Z,8.02
2023-05-19T00:18:18.424Z,8.27
2023-05-19T00:20:20.516Z,8.20
2023-05-19T00:22:22.898Z,8.43
2023-05-19T00:24:26.456Z,8.27
2023-05-19T00:26:28.574Z,9.00
2023-05-19T00:28:30.590Z,8.77
2023-05-19T00:30:32.792Z,9.15
2023-05-19T00:32:37.604Z,8.02
2023-05-19T00:34:39.772Z,8.07
2023-05-19T00:36:42.152Z,8.95
2023-05-19T00:38:44.394Z,8.60
2023-05-19T00:40:47.929Z,7.80
2023-05-19T00:42:50.024Z,8.63
2023-05-19T00:44:52.880Z,8.68
2023-05-19T00:46:55.400Z,9.45
2023-05-19T00:48:58.573Z,9.35
2023-05-19T00:51:06.290Z,8.77
2023-05-19T00:53:08.979Z,7.47
2023-05-19T00:55:11.614Z,9.23
2023-05-19T00:57:15.593Z,9.00
2023-05-19T00:59:19.281Z,9.00
2023-05-19T01:01:22.396Z,9.25
2023-05-19T01:03:25.548Z,9.60
2023-05-19T01:05:28.687Z,9.27
2023-05-19T01:07:30.726Z,8.88
2023-05-19T01:09:32.848Z,10.13
2023-05-19T01:11:34.872Z,8.60
2023-05-19T01:13:41.108Z,9.10
2023-05-19T01:16:01.477Z,8.40
2023-05-19T01:18:11.380Z,9.45
2023-05-19T01:20:19.669Z,9.45
2023-05-19T01:22:57.916Z,9.77
2023-05-19T01:25:36.937Z,10.18
2023-05-19T01:28:20.950Z,10.00
2023-05-19T01:30:28.568Z,9.82
2023-05-19T01:32:31.988Z,9.35
2023-05-19T01:34:38.979Z,10.63
2023-05-19T01:36:44.787Z,10.80
2023-05-19T01:38:51.101Z,9.43
2023-05-19T01:40:55.470Z,9.98
2023-05-19T01:42:59.692Z,10.25
2023-05-19T01:45:02.259Z,9.98
2023-05-19T01:47:06.500Z,10.32
2023-05-19T01:49:09.118Z,11.57
2023-05-19T01:51:11.278Z,10.73
2023-05-19T01:53:13.542Z,10.57
2023-05-19T01:55:15.664Z,10.77
2023-05-19T01:57:29.625Z,11.35
2023-05-19T01:59:42.164Z,10.57
2023-05-19T02:01:51.959Z,11.13
2023-05-19T02:04:15.997Z,10.73
2023-05-19T02:06:31.075Z,10.48
2023-05-19T02:08:41.553Z,11.05
2023-05-19T02:10:50.283Z,11.52
2023-05-19T02:12:55.235Z,10.60
2023-05-19T02:17:05.350Z,10.68
2023-05-19T02:19:21.012Z,10.38
2023-05-19T02:21:23.102Z,11.30
2023-05-19T02:23:25.399Z,10.93
2023-05-19T02:25:27.423Z,11.88
2023-05-19T02:27:29.951Z,10.82
2023-05-19T02:29:31.936Z,10.65
2023-05-19T02:31:34.214Z,9.88
2023-05-19T02:33:36.351Z,9.80
2023-05-19T02:35:39.857Z,9.15
2023-05-19T02:37:41.966Z,12.15
2023-05-19T02:39:44.462Z,11.40
2023-05-19T02:41:46.493Z,11.05
2023-05-19T02:43:48.528Z,11.23
2023-05-19T02:45:50.669Z,9.00
2023-05-19T02:47:52.718Z,10.38
2023-05-19T02:49:54.787Z,10.23
2023-05-19T02:51:58.191Z,11.30
2023-05-19T02:54:00.338Z,9.85
2023-05-19T02:56:04.689Z,12.38
2023-05-19T02:58:06.693Z,12.43
2023-05-19T03:00:10.197Z,10.77
2023-05-19T03:02:12.417Z,11.65
2023-05-19T03:04:14.606Z,10.95
2023-05-19T03:06:17.993Z,11.07
2023-05-19T03:08:21.428Z,11.85
2023-05-19T03:10:23.504Z,11.05
2023-05-19T03:12:25.600Z,10.55
2023-05-19T03:14:28.023Z,10.95
2023-05-19T03:16:30.069Z,12.05
2023-05-19T03:18:32.078Z,12.63
2023-05-19T03:20:35.120Z,11.88
2023-05-19T03:22:37.134Z,10.88
2023-05-19T03:24:40.637Z,13.43
2023-05-19T03:26:42.915Z,11.20
2023-05-19T03:28:44.976Z,11.20
2023-05-19T03:30:50.047Z,11.52
2023-05-19T03:32:52.079Z,11.20
2023-05-19T03:34:54.248Z,11.75
2023-05-19T03:36:56.571Z,12.80
2023-05-19T03:38:58.776Z,12.52
2023-05-19T03:41:02.299Z,11.45
2023-05-19T03:43:04.832Z,12.13
2023-05-19T03:45:08.150Z,10.63
2023-05-19T03:47:11.061Z,12.30
2023-05-19T03:49:13.872Z,12.80
2023-05-19T03:51:16.009Z,12.25
2023-05-19T03:53:18.152Z,12.27
2023-05-19T03:55:20.233Z,11.73
2023-05-19T03:57:23.796Z,12.30
2023-05-19T03:59:25.844Z,11.90
2023-05-19T04:01:27.873Z,13.65
2023-05-19T04:03:29.985Z,11.43
2023-05-19T04:05:31.971Z,11.80
2023-05-19T04:07:33.993Z,13.07
2023-05-19T04:09:37.643Z,11.75
2023-05-19T04:11:40.247Z,12.85
2023-05-19T04:13:45.084Z,14.10
2023-05-19T04:15:47.376Z,11.93
2023-05-19T04:17:49.528Z,12.50
2023-05-19T04:19:51.621Z,13.43
2023-05-19T04:21:53.840Z,11.80
2023-05-19T04:23:56.131Z,12.77
2023-05-19T04:25:59.020Z,13.10
2023-05-19T04:28:01.039Z,13.30
2023-05-19T04:30:05.105Z,12.70
2023-05-19T04:32:08.118Z,12.73
2023-05-19T04:34:10.524Z,11.95
2023-05-19T04:36:13.719Z,12.75
2023-05-19T04:38:18.782Z,12.10
2023-05-19T04:42:26.094Z,12.38
2023-05-19T04:44:28.095Z,11.88
2023-05-19T04:46:32.211Z,13.60
2023-05-19T04:48:34.249Z,12.27
2023-05-19T04:50:38.509Z,12.50
2023-05-19T04:52:42.493Z,11.30
2023-05-19T04:54:44.642Z,13.25
2023-05-19T04:56:46.659Z,12.45
2023-05-19T04:58:49.083Z,11.15
2023-05-19T05:00:51.066Z,11.27
2023-05-19T05:02:57.552Z,12.15
2023-05-19T05:04:59.797Z,12.13
2023-05-19T05:07:01.857Z,10.20
2023-05-19T05:09:04.309Z,11.52
2023-05-19T05:11:07.121Z,12.27
2023-05-19T05:13:11.599Z,11.50
2023-05-19T05:15:14.556Z,11.90
2023-05-19T05:17:17.316Z,12.82
2023-05-19T05:19:22.333Z,11.25
2023-05-19T05:21:26.107Z,10.60
2023-05-19T05:23:28.643Z,11.38
2023-05-19T05:25:33.129Z,9.90
2023-05-19T05:27:35.807Z,11.13
2023-05-19T05:29:37.875Z,10.80
2023-05-19T05:31:39.874Z,11.30
2023-05-19T05:33:42.755Z,11.10
2023-05-19T05:35:46.692Z,10.70
2023-05-19T05:37:48.633Z,11.07
2023-05-19T05:39:50.593Z,11.15
2023-05-19T05:41:52.669Z,11.63
2023-05-19T05:43:54.851Z,12.07
2023-05-19T05:45:57.204Z,11.23
2023-05-19T05:47:59.984Z,11.50
2023-05-19T05:50:03.845Z,11.35
2023-05-19T05:52:09.995Z,10.43
2023-05-19T05:54:13.324Z,11.85
2023-05-19T05:56:16.075Z,11.30
2023-05-19T05:58:18.038Z,10.70
2023-05-19T06:00:22.390Z,12.02
2023-05-19T06:02:24.788Z,10.90
2023-05-19T06:04:27.048Z,11.82
2023-05-19T06:06:29.201Z,11.05
2023-05-19T06:08:32.719Z,11.70
2023-05-19T06:10:36.939Z,11.10
2023-05-19T06:12:40.881Z,9.38
2023-05-19T06:14:43.005Z,9.60
2023-05-19T06:16:45.081Z,11.82
2023-05-19T06:18:47.639Z,11.25
2023-05-19T06:20:49.725Z,11.10
2023-05-19T06:22:51.738Z,11.15
2023-05-19T06:24:55.154Z,11.13
2023-05-19T06:26:57.158Z,9.48
2023-05-19T06:28:59.127Z,10.77
2023-05-19T06:31:01.145Z,11.68
2023-05-19T06:33:03.682Z,10.93
2023-05-19T06:35:06.210Z,11.00
2023-05-19T06:37:08.518Z,10.65
2023-05-19T06:39:11.888Z,11.52
2023-05-19T06:41:15.301Z,11.60
2023-05-19T06:43:17.909Z,11.10
2023-05-19T06:45:22.329Z,11.05
2023-05-19T06:47:24.451Z,10.52
2023-05-19T06:49:29.407Z,10.73
2023-05-19T06:53:35.221Z,11.30
2023-05-19T06:55:47.226Z,10.27
2023-05-19T06:58:01.239Z,11.27
2023-05-19T07:00:04.137Z,10.07
2023-05-19T07:02:06.742Z,11.10
2023-05-19T07:04:08.946Z,10.18
2023-05-19T07:06:13.798Z,9.93
2023-05-19T07:08:16.466Z,9.77
2023-05-19T07:10:18.467Z,10.98
2023-05-19T07:12:20.684Z,9.63
2023-05-19T07:14:24.168Z,8.80
2023-05-19T07:16:26.277Z,9.95
2023-05-19T07:18:31.804Z,9.43
2023-05-19T07:20:34.117Z,9.68
2023-05-19T07:22:36.540Z,8.38
2023-05-19T07:24:38.828Z,9.88
2023-05-19T07:26:42.588Z,10.68
2023-05-19T07:28:44.652Z,9.32
2023-05-19T07:30:49.849Z,10.05
2023-05-19T07:32:52.134Z,9.50
2023-05-19T07:34:54.317Z,9.20
2023-05-19T07:36:56.694Z,8.00
2023-05-19T07:38:58.698Z,10.05
2023-05-19T07:41:01.139Z,8.52
2023-05-19T07:43:06.096Z,8.43
2023-05-19T07:47:11.980Z,10.48
2023-05-19T07:49:13.990Z,9.43
2023-05-19T07:51:16.273Z,9.18
2023-05-19T07:53:18.696Z,9.65
2023-05-19T07:55:23.055Z,9.50
2023-05-19T07:57:25.189Z,9.48
2023-05-19T07:59:27.321Z,8.20
2023-05-19T08:01:30.305Z,9.13
2023-05-19T08:03:34.022Z,9.68
2023-05-19T08:05:36.426Z,9.35
2023-05-19T08:07:38.522Z,8.55
2023-05-19T08:09:40.787Z,8.80
2023-05-19T08:11:42.997Z,9.38
2023-05-19T08:13:47.610Z,7.90
2023-05-19T08:15:49.695Z,7.82
2023-05-19T08:17:51.892Z,7.70
2023-05-19T08:19:55.490Z,7.78
2023-05-19T08:22:01.138Z,6.68
2023-05-19T08:24:03.955Z,9.38
2023-05-19T08:26:06.186Z,9.48
2023-05-19T08:28:08.216Z,9.43
2023-05-19T08:30:12.007Z,7.47
2023-05-19T08:32:14.105Z,7.57
2023-05-19T08:34:16.213Z,7.85
2023-05-19T08:36:19.667Z,7.70
2023-05-19T08:38:21.964Z,8.85
2023-05-19T08:40:24.027Z,7.45
2023-05-19T08:42:26.395Z,7.22
2023-05-19T08:44:30.843Z,8.00
2023-05-19T08:46:35.163Z,7.93
2023-05-19T08:48:41.225Z,7.85
2023-05-19T08:50:47.416Z,8.00
2023-05-19T08:52:53.926Z,6.72
2023-05-19T08:55:01.022Z,6.93
2023-05-19T08:57:03.376Z,7.40
2023-05-19T08:59:06.599Z,7.95
2023-05-19T09:01:09.547Z,7.40
2023-05-19T09:05:19.892Z,8.10
2023-05-19T09:07:25.614Z,6.72
2023-05-19T09:09:29.733Z,6.65
2023-05-19T09:11:31.899Z,7.82
2023-05-19T09:13:33.948Z,7.32
2023-05-19T09:15:39.175Z,6.05
2023-05-19T09:17:41.500Z,6.53
2023-05-19T09:19:44.426Z,5.90
2023-05-19T09:21:46.508Z,6.80
2023-05-19T09:23:49.593Z,5.93
2023-05-19T09:25:53.954Z,7.07
2023-05-19T09:27:56.665Z,7.13
2023-05-19T09:30:08.669Z,6.28
2023-05-19T09:32:11.245Z,5.93
2023-05-19T09:34:13.803Z,6.55
2023-05-19T09:36:15.960Z,6.65
2023-05-19T09:38:18.848Z,5.68
2023-05-19T09:40:21.259Z,5.60
2023-05-19T09:42:29.753Z,5.38
2023-05-19T09:44:32.998Z,4.72
2023-05-19T09:46:36.652Z,4.75
2023-05-19T09:48:38.930Z,6.05
2023-05-19T09:50:42.381Z,4.50
2023-05-19T09:52:44.980Z,5.97
2023-05-19T09:54:48.465Z,5.43
2023-05-19T09:56:58.871Z,5.70
2023-05-19T09:59:03.519Z,5.32
2023-05-19T10:01:06.466Z,4.30
2023-05-19T10:03:10.004Z,3.65
2023-05-19T10:05:16.947Z,3.53
2023-05-19T10:07:21.246Z,4.30
2023-05-19T10:09:27.150Z,3.88
2023-05-19T10:11:30.649Z,4.15
2023-05-19T10:13:35.210Z,3.63
2023-05-19T10:15:53.747Z,4.03
2023-05-19T10:18:02.264Z,4.60
2023-05-19T10:20:07.015Z,3.75
2023-05-19T10:22:09.023Z,3.85
2023-05-19T10:24:12.775Z,3.20
2023-05-19T10:26:16.064Z,3.78
2023-05-19T10:28:21.281Z,3.60
2023-05-19T10:30:28.281Z,4.28
2023-05-19T10:32:33.328Z,4.30
2023-05-19T10:35:01.782Z,3.85
2023-05-19T10:37:12.851Z,3.13
2023-05-19T10:39:21.452Z,3.35
2023-05-19T10:41:29.337Z,3.67
2023-05-19T10:43:46.845Z,3.65
2023-05-19T10:45:52.823Z,3.28
2023-05-19T10:47:56.427Z,3.60
2023-05-19T10:50:00.721Z,3.85
2023-05-19T10:52:03.291Z,3.80
2023-05-19T10:54:10.451Z,3.97
2023-05-19T10:56:32.942Z,4.25
2023-05-19T10:58:49.601Z,4.10
2023-05-19T11:01:00.470Z,4.30
2023-05-19T11:03:18.501Z,3.85
2023-05-19T11:05:28.782Z,3.83
2023-05-19T11:07:31.392Z,4.22
2023-05-19T11:09:40.717Z,3.90
2023-05-19T11:11:46.369Z,4.53
2023-05-19T11:13:51.786Z,4.25
2023-05-19T11:15:56.276Z,3.80
2023-05-19T11:18:01.923Z,4.78
2023-05-19T11:20:10.966Z,5.10
2023-05-19T11:22:14.115Z,4.47
2023-05-19T11:24:35.255Z,4.43
2023-05-19T11:26:43.685Z,4.03
2023-05-19T11:28:47.654Z,4.30
2023-05-19T11:30:55.126Z,3.87
2023-05-19T11:32:57.237Z,4.50
2023-05-19T11:35:00.221Z,4.50
2023-05-19T11:37:04.782Z,4.05
2023-05-19T11:39:08.347Z,4.28
2023-05-19T11:41:10.435Z,4.60
2023-05-19T11:43:12.551Z,4.95
2023-05-19T11:45:14.594Z,3.60
2023-05-19T11:47:17.471Z,3.20
2023-05-19T11:49:19.691Z,2.92
2023-05-19T11:51:22.745Z,4.75
2023-05-19T11:53:26.198Z,5.28
2023-05-19T11:55:28.468Z,5.47
2023-05-19T11:57:30.980Z,3.33
2023-05-19T11:59:35.971Z,3.63
2023-05-19T12:01:38.621Z,3.97
2023-05-19T12:03:40.904Z,4.38
2023-05-19T12:05:46.866Z,3.70
2023-05-19T12:07:51.256Z,4.50
2023-05-19T12:09:56.587Z,4.38
2023-05-19T12:11:58.904Z,4.20
2023-05-19T12:14:01.285Z,4.00
2023-05-19T12:16:04.588Z,4.45
2023-05-19T12:18:07.325Z,4.50
2023-05-19T12:20:10.854Z,3.17
2023-05-19T12:22:14.588Z,4.03
2023-05-19T12:24:16.713Z,4.55
2023-05-19T12:26:22.371Z,3.72
2023-05-19T12:28:24.445Z,3.25
2023-05-19T12:30:27.613Z,3.42
2023-05-19T12:32:29.713Z,3.05
2023-05-19T12:34:32.148Z,3.47
2023-05-19T12:36:34.550Z,3.38
2023-05-19T12:38:39.473Z,4.20
2023-05-19T12:42:46.317Z,3.40
2023-05-19T12:44:52.883Z,3.30
2023-05-19T12:46:57.451Z,4.05
2023-05-19T12:49:01.062Z,4.45
2023-05-19T12:51:03.365Z,3.88
2023-05-19T12:53:09.131Z,4.30
2023-05-19T12:55:12.429Z,3.67
2023-05-19T12:57:16.703Z,3.97
2023-05-19T12:59:37.394Z,4.13
2023-05-19T13:01:40.664Z,3.47
2023-05-19T13:03:43.045Z,3.60
2023-05-19T13:05:46.948Z,3.60
2023-05-19T13:07:57.466Z,3.90
2023-05-19T13:09:59.520Z,3.75
2023-05-19T13:12:01.579Z,3.50
2023-05-19T13:14:03.608Z,3.45
2023-05-19T13:16:07.563Z,3.90
2023-05-19T13:18:11.377Z,3.40
2023-05-19T13:20:13.748Z,3.58
2023-05-19T13:22:15.836Z,3.17
2023-05-19T13:24:17.853Z,4.10
2023-05-19T13:26:19.951Z,3.47
2023-05-19T13:28:22.252Z,3.40
2023-05-19T13:30:24.337Z,3.78
2023-05-19T13:32:27.730Z,3.45
2023-05-19T13:34:30.005Z,3.85
2023-05-19T13:36:33.358Z,3.42
2023-05-19T13:38:35.415Z,4.00
2023-05-19T13:40:37.709Z,3.47
2023-05-19T13:42:40.544Z,3.67
2023-05-19T13:44:42.496Z,3.95
2023-05-19T13:46:46.522Z,5.80
2023-05-19T13:48:51.380Z,3.83
2023-05-19T13:50:55.496Z,3.40
2023-05-19T13:52:57.524Z,4.00
2023-05-19T13:54:59.562Z,3.42
2023-05-19T13:57:01.681Z,3.47
2023-05-19T13:59:04.114Z,3.45
2023-05-19T14:01:06.239Z,3.38
2023-05-19T14:03:08.378Z,3.10
2023-05-19T14:05:12.010Z,3.70
2023-05-19T14:07:13.960Z,3.28
2023-05-19T14:09:16.484Z,3.20
2023-05-19T14:11:19.779Z,3.38
2023-05-19T14:13:32.647Z,4.50
2023-05-19T14:15:38.237Z,3.33
2023-05-19T14:17:40.583Z,3.17
2023-05-19T14:19:42.796Z,3.78
2023-05-19T14:21:46.211Z,3.30
2023-05-19T14:23:48.419Z,3.20
2023-05-19T14:25:50.431Z,3.28
2023-05-19T14:27:52.460Z,3.30
2023-05-19T14:29:54.508Z,2.70
2023-05-19T14:31:57.269Z,4.18
2023-05-19T14:33:59.584Z,3.20
2023-05-19T14:36:01.708Z,3.17
2023-05-19T14:38:05.108Z,2.65
2023-05-19T14:40:08.165Z,3.13
2023-05-19T14:42:10.530Z,3.85
2023-05-19T14:44:12.618Z,3.63
2023-05-19T14:46:14.718Z,2.90
2023-05-19T14:48:18.093Z,3.08
2023-05-19T14:50:20.473Z,2.42
2023-05-19T14:52:22.935Z,2.85
2023-05-19T14:54:26.402Z,2.65
2023-05-19T14:56:28.440Z,3.38
2023-05-19T14:58:30.526Z,3.33
2023-05-19T15:00:32.813Z,3.00
2023-05-19T15:02:35.048Z,3.25
2023-05-19T15:04:37.267Z,3.22
2023-05-19T15:06:39.341Z,3.65
2023-05-19T15:08:41.585Z,3.00
2023-05-19T15:10:48.500Z,3.42
2023-05-19T15:12:50.694Z,3.47
2023-05-19T15:14:52.898Z,3.58
2023-05-19T15:16:54.963Z,3.20
2023-05-19T15:18:57.231Z,2.50
2023-05-19T15:20:59.312Z,2.88
2023-05-19T15:23:01.333Z,3.20
2023-05-19T15:25:03.646Z,3.65
2023-05-19T15:27:08.525Z,3.45
2023-05-19T15:31:12.466Z,3.33
2023-05-19T15:33:15.071Z,3.38
2023-05-19T15:35:17.137Z,3.05
2023-05-19T15:37:19.378Z,3.47
2023-05-19T15:39:21.406Z,2.65
2023-05-19T15:41:23.629Z,2.83
2023-05-19T15:43:27.020Z,3.00
2023-05-19T15:45:28.957Z,2.78
2023-05-19T15:47:31.200Z,2.85
2023-05-19T15:49:33.306Z,3.25
2023-05-19T15:51:35.562Z,3.15
2023-05-19T15:53:37.672Z,3.25
2023-05-19T15:55:39.813Z,2.75
2023-05-19T15:57:41.819Z,2.70
2023-05-19T15:59:45.641Z,2.75
2023-05-19T16:01:47.813Z,2.95
2023-05-19T16:03:50.398Z,2.50
2023-05-19T16:05:53.937Z,3.20
2023-05-19T16:07:56.226Z,2.92
2023-05-19T16:09:58.225Z,3.30
2023-05-19T16:12:00.310Z,2.80
2023-05-19T16:14:02.315Z,3.00
2023-05-19T16:16:06.624Z,2.67
2023-05-19T16:18:08.770Z,2.50
2023-05-19T16:20:11.782Z,2.75
2023-05-19T16:22:13.775Z,2.20
2023-05-19T16:24:15.927Z,2.80
2023-05-19T16:26:17.983Z,2.90
2023-05-19T16:28:20.997Z,2.60
2023-05-19T16:30:26.295Z,2.35
2023-05-19T16:32:29.931Z,3.10
2023-05-19T16:34:32.000Z,2.75
2023-05-19T16:36:33.947Z,2.58
2023-05-19T16:38:36.014Z,2.65
2023-05-19T16:40:38.075Z,2.65
2023-05-19T16:42:40.856Z,2.38
2023-05-19T16:44:43.175Z,2.90
2023-05-19T16:46:45.307Z,2.75
2023-05-19T16:48:48.623Z,2.80
2023-05-19T16:50:50.939Z,2.67
2023-05-19T16:52:52.946Z,3.00
2023-05-19T16:54:55.017Z,2.88
2023-05-19T16:56:58.034Z,2.47
2023-05-19T16:59:00.137Z,2.15
2023-05-19T17:01:03.213Z,2.88
2023-05-19T17:03:05.570Z,2.83
2023-05-19T17:05:09.770Z,2.45
2023-05-19T17:07:15.715Z,2.47
2023-05-19T17:09:18.158Z,2.72
2023-05-19T17:11:20.161Z,2.85
2023-05-19T17:13:22.205Z,2.33
2023-05-19T17:15:24.143Z,2.60
2023-05-19T17:17:26.408Z,2.85
2023-05-19T17:19:28.699Z,3.15
2023-05-19T17:21:32.361Z,3.40
2023-05-19T17:23:34.421Z,2.78
2023-05-19T17:25:36.907Z,3.00
2023-05-19T17:27:39.179Z,3.00
2023-05-19T17:29:41.257Z,2.60
2023-05-19T17:31:43.925Z,2.42
2023-05-19T17:33:46.153Z,3.25
2023-05-19T17:35:48.486Z,3.25
2023-05-19T17:37:51.894Z,2.90
2023-05-19T17:39:53.972Z,2.70
2023-05-19T17:41:56.343Z,2.58
2023-05-19T17:43:58.713Z,2.72
2023-05-19T17:46:01.307Z,2.90
2023-05-19T17:48:04.728Z,2.42
2023-05-19T17:50:07.756Z,2.80
2023-05-19T17:52:10.771Z,2.53
2023-05-19T17:54:14.822Z,2.60
2023-05-19T17:56:19.558Z,2.88
2023-05-19T17:58:22.159Z,3.03
2023-05-19T18:00:25.344Z,2.92
2023-05-19T18:02:27.952Z,3.33
2023-05-19T18:04:30.713Z,2.90
2023-05-19T18:06:33.009Z,2.90
2023-05-19T18:08:36.581Z,2.63
2023-05-19T18:10:41.354Z,2.83
2023-05-19T18:12:43.350Z,2.63
2023-05-19T18:14:45.380Z,3.03
2023-05-19T18:16:49.610Z,2.72
2023-05-19T18:18:51.877Z,3.22
2023-05-19T18:20:54.862Z,2.97
2023-05-19T18:22:57.722Z,3.42
2023-05-19T18:24:59.841Z,3.80
2023-05-19T18:27:03.402Z,3.70
2023-05-19T18:29:06.117Z,3.13
2023-05-19T18:31:17.445Z,3.80
2023-05-19T18:33:19.536Z,3.60
2023-05-19T18:35:21.507Z,3.10
2023-05-19T18:37:23.550Z,3.20
2023-05-19T18:39:28.609Z,3.47
2023-05-19T18:41:32.091Z,3.45
2023-05-19T18:43:35.490Z,3.00
2023-05-19T18:45:37.802Z,3.85
2023-05-19T18:47:39.883Z,3.13
2023-05-19T18:49:42.152Z,3.17
2023-05-19T18:51:44.216Z,3.40
2023-05-19T18:53:48.634Z,3.25
2023-05-19T18:55:50.836Z,3.10
2023-05-19T18:57:54.454Z,3.35
2023-05-19T18:59:58.126Z,3.55
2023-05-19T19:02:00.185Z,4.00
2023-05-19T19:04:02.535Z,3.05
2023-05-19T19:06:06.025Z,3.13
2023-05-19T19:08:08.006Z,3.47
2023-05-19T19:10:11.176Z,3.47
2023-05-19T19:12:13.184Z,2.90
2023-05-19T19:14:19.313Z,3.20
2023-05-19T19:16:22.996Z,3.28
2023-05-19T19:18:26.447Z,3.20
2023-05-19T19:20:28.565Z,3.78
2023-05-19T19:22:30.816Z,3.45
2023-05-19T19:24:32.890Z,3.10
2023-05-19T19:26:34.846Z,3.35
2023-05-19T19:28:37.019Z,3.72
2023-05-19T19:30:39.088Z,3.95
2023-05-19T19:32:42.596Z,3.30
2023-05-19T19:34:44.643Z,3.85
2023-05-19T19:36:47.767Z,3.50
2023-05-19T19:38:49.802Z,3.60
2023-05-19T19:40:52.561Z,3.58
2023-05-19T19:42:54.575Z,3.35
2023-05-19T19:44:56.658Z,2.85
2023-05-19T19:46:59.401Z,3.42
2023-05-19T19:49:03.360Z,3.50
2023-05-19T19:51:05.569Z,3.30
2023-05-19T19:53:08.878Z,3.92
2023-05-19T19:55:11.368Z,3.50
2023-05-19T19:57:16.977Z,3.85
2023-05-19T19:59:19.850Z,3.10
2023-05-19T20:01:23.584Z,3.80
2023-05-19T20:03:26.226Z,4.13
2023-05-19T20:05:29.869Z,3.33
2023-05-19T20:07:32.496Z,3.92
2023-05-19T20:09:36.830Z,3.60
2023-05-19T20:11:38.853Z,3.80
2023-05-19T20:13:40.969Z,3.90
2023-05-19T20:15:43.500Z,4.03
2023-05-19T20:17:45.838Z,4.30
2023-05-19T20:19:48.216Z,3.80
2023-05-19T20:21:51.641Z,4.13
2023-05-19T20:23:53.955Z,4.00
2023-05-19T20:26:11.024Z,3.78
2023-05-19T20:28:15.032Z,3.72
2023-05-19T20:30:17.171Z,4.15
2023-05-19T20:32:19.595Z,3.53
2023-05-19T20:34:21.791Z,3.47
2023-05-19T20:36:23.964Z,4.22
2023-05-19T20:38:27.411Z,3.88
2023-05-19T20:40:29.721Z,4.22
2023-05-19T20:42:33.226Z,4.18
2023-05-19T20:44:35.628Z,4.05
2023-05-19T20:46:37.984Z,4.53
2023-05-19T20:48:39.989Z,3.83
2023-05-19T20:50:41.933Z,4.72
2023-05-19T20:52:44.137Z,4.80
2023-05-19T20:54:47.520Z,4.20
2023-05-19T20:56:49.852Z,4.45
2023-05-19T20:58:52.126Z,4.25
2023-05-19T21:00:57.518Z,5.22
2023-05-19T21:03:00.173Z,5.55
2023-05-19T21:05:03.283Z,5.43
2023-05-19T21:07:05.873Z,5.47
2023-05-19T21:09:08.763Z,5.40
2023-05-19T21:11:12.357Z,5.25
2023-05-19T21:13:14.412Z,5.65
2023-05-19T21:15:16.581Z,5.78
2023-05-19T21:17:21.556Z,5.72
2023-05-19T21:21:25.700Z,5.10
2023-05-19T21:23:27.697Z,4.93
2023-05-19T21:25:30.927Z,5.85
2023-05-19T21:27:35.545Z,5.53
2023-05-19T21:29:37.631Z,6.10
2023-05-19T21:31:40.150Z,6.32
2023-05-19T21:33:42.206Z,6.72
2023-05-19T21:35:45.511Z,6.45
2023-05-19T21:37:47.525Z,6.65
2023-05-19T21:39:49.504Z,6.68
2023-05-19T21:41:51.608Z,7.15
2023-05-19T21:43:55.237Z,6.63
2023-05-19T21:45:57.329Z,7.25
2023-05-19T21:47:59.546Z,8.38
2023-05-19T21:50:01.599Z,7.95
2023-05-19T21:52:03.922Z,6.78
2023-05-19T21:54:06.223Z,7.30
2023-05-19T21:56:08.351Z,7.55
2023-05-19T21:58:12.302Z,7.95
2023-05-19T22:00:16.030Z,7.85
2023-05-19T22:02:18.115Z,8.30
2023-05-19T22:04:21.486Z,7.38
2023-05-19T22:06:23.452Z,8.10
2023-05-19T22:08:26.023Z,8.23
2023-05-19T22:10:28.222Z,9.18
2023-05-19T22:12:32.141Z,8.13
2023-05-19T22:14:34.257Z,8.63
2023-05-19T22:16:37.797Z,9.38
2023-05-19T22:18:39.952Z,8.20
2023-05-19T22:20:42.364Z,9.00
2023-05-19T22:22:44.473Z,8.13
2023-05-19T22:24:47.502Z,9.25
2023-05-19T22:26:49.501Z,8.90
2023-05-19T22:28:51.804Z,9.10
2023-05-19T22:30:54.018Z,9.23
2023-05-19T22:32:57.440Z,9.50
2023-05-19T22:34:59.472Z,9.82
2023-05-19T22:37:01.860Z,9.20
2023-05-19T22:39:04.173Z,9.85
2023-05-19T22:41:06.282Z,10.10
2023-05-19T22:43:08.700Z,9.32
2023-05-19T22:45:11.219Z,9.25
2023-05-19T22:47:13.899Z,10.02
2023-05-19T22:49:17.986Z,9.10
2023-05-19T22:51:20.137Z,9.48
2023-05-19T22:53:22.166Z,10.07
2023-05-19T22:55:24.180Z,9.38
2023-05-19T22:57:26.326Z,9.88
2023-05-19T22:59:28.384Z,9.85
2023-05-19T23:01:30.526Z,9.85
2023-05-19T23:03:32.590Z,10.05
2023-05-19T23:05:36.500Z,9.32
2023-05-19T23:07:38.543Z,9.10
2023-05-19T23:09:40.770Z,10.23
2023-05-19T23:11:42.727Z,9.30
2023-05-19T23:13:45.723Z,9.57
2023-05-19T23:15:52.358Z,8.98
2023-05-19T23:17:54.373Z,9.10
2023-05-19T23:19:56.692Z,9.82
2023-05-19T23:22:00.065Z,9.23
2023-05-19T23:24:04.549Z,9.82
2023-05-19T23:26:06.623Z,7.15
2023-05-19T23:28:10.374Z,9.45
2023-05-19T23:30:12.505Z,9.40
2023-05-19T23:32:14.711Z,8.73
2023-05-19T23:34:16.712Z,9.40
2023-05-19T23:36:19.247Z,8.95
2023-05-19T23:38:22.603Z,8.95
2023-05-19T23:40:24.686Z,8.68
2023-05-19T23:42:26.971Z,8.63
2023-05-19T23:44:29.070Z,8.48
2023-05-19T23:48:36.604Z,9.30
2023-05-19T23:50:38.728Z,9.25
2023-05-19T23:52:40.680Z,8.38
2023-05-19T23:54:44.196Z,8.13
2023-05-19T23:56:46.334Z,9.10
2023-05-19T23:58:48.700Z,8.38
